sensor_id;sensor_type;location;lat;lon;timestamp;temperature;humidity
43647;DHT22;56152;49.996;18.980;2023-06-19T00:02:01;14.10;86.50
43647;DHT22;56152;49.996;18.980;2023-06-19T00:07:04;14.10;86.60
43647;DHT22;56152;49.996;18.980;2023-06-19T00:12:09;14.00;86.60
43647;DHT22;56152;49.996;18.980;2023-06-19T00:17:12;13.90;87.50
43647;DHT22;56152;49.996;18.980;2023-06-19T00:22:17;13.70;87.20
43647;DHT22;56152;49.996;18.980;2023-06-19T00:27:35;13.60;87.10
43647;DHT22;56152;49.996;18.980;2023-06-19T00:32:37;13.50;87.10
43647;DHT22;56152;49.996;18.980;2023-06-19T00:37:50;13.40;87.00
43647;DHT22;56152;49.996;18.980;2023-06-19T00:42:53;13.40;87.00
43647;DHT22;56152;49.996;18.980;2023-06-19T00:47:57;13.40;87.20
43647;DHT22;56152;49.996;18.980;2023-06-19T00:53:09;13.40;87.20
43647;DHT22;56152;49.996;18.980;2023-06-19T00:58:12;13.30;87.10
43647;DHT22;56152;49.996;18.980;2023-06-19T01:03:18;13.20;87.30
43647;DHT22;56152;49.996;18.980;2023-06-19T01:08:40;13.20;87.60
43647;DHT22;56152;49.996;18.980;2023-06-19T01:13:49;13.20;88.00
43647;DHT22;56152;49.996;18.980;2023-06-19T01:18:54;13.10;88.70
43647;DHT22;56152;49.996;18.980;2023-06-19T01:23:59;13.10;88.90
43647;DHT22;56152;49.996;18.980;2023-06-19T01:29:02;13.10;89.10
43647;DHT22;56152;49.996;18.980;2023-06-19T01:34:06;13.10;89.30
43647;DHT22;56152;49.996;18.980;2023-06-19T01:39:12;13.10;89.30
43647;DHT22;56152;49.996;18.980;2023-06-19T01:44:15;13.00;89.30
43647;DHT22;56152;49.996;18.980;2023-06-19T01:49:22;13.00;89.60
43647;DHT22;56152;49.996;18.980;2023-06-19T01:54:27;12.90;89.60
43647;DHT22;56152;49.996;18.980;2023-06-19T01:59:29;12.80;89.50
43647;DHT22;56152;49.996;18.980;2023-06-19T02:04:31;12.80;89.80
43647;DHT22;56152;49.996;18.980;2023-06-19T02:09:35;12.70;89.80
43647;DHT22;56152;49.996;18.980;2023-06-19T02:14:37;12.70;89.90
43647;DHT22;56152;49.996;18.980;2023-06-19T02:19:41;12.60;89.90
43647;DHT22;56152;49.996;18.980;2023-06-19T02:24:45;12.60;90.00
43647;DHT22;56152;49.996;18.980;2023-06-19T02:29:47;12.50;89.90
43647;DHT22;56152;49.996;18.980;2023-06-19T02:34:49;12.30;90.10
43647;DHT22;56152;49.996;18.980;2023-06-19T02:39:54;12.20;90.30
43647;DHT22;56152;49.996;18.980;2023-06-19T02:44:58;12.10;90.60
43647;DHT22;56152;49.996;18.980;2023-06-19T02:50:04;12.00;90.40
43647;DHT22;56152;49.996;18.980;2023-06-19T02:55:09;12.00;90.40
43647;DHT22;56152;49.996;18.980;2023-06-19T03:00:12;12.10;90.40
43647;DHT22;56152;49.996;18.980;2023-06-19T03:05:15;12.10;90.30
43647;DHT22;56152;49.996;18.980;2023-06-19T03:10:32;12.00;90.30
43647;DHT22;56152;49.996;18.980;2023-06-19T03:15:34;12.00;90.30
43647;DHT22;56152;49.996;18.980;2023-06-19T03:20:37;12.10;90.30
43647;DHT22;56152;49.996;18.980;2023-06-19T03:25:45;12.20;90.30
43647;DHT22;56152;49.996;18.980;2023-06-19T03:30:47;12.20;90.30
43647;DHT22;56152;49.996;18.980;2023-06-19T03:35:49;12.30;90.20
43647;DHT22;56152;49.996;18.980;2023-06-19T03:40:52;12.50;90.20
43647;DHT22;56152;49.996;18.980;2023-06-19T03:46:14;12.60;90.40
43647;DHT22;56152;49.996;18.980;2023-06-19T03:51:16;12.70;90.30
43647;DHT22;56152;49.996;18.980;2023-06-19T03:56:20;12.80;90.30
43647;DHT22;56152;49.996;18.980;2023-06-19T04:01:24;12.90;90.30
43647;DHT22;56152;49.996;18.980;2023-06-19T04:06:52;13.20;90.60
43647;DHT22;56152;49.996;18.980;2023-06-19T04:11:58;13.40;90.20
43647;DHT22;56152;49.996;18.980;2023-06-19T04:17:01;13.70;90.10
43647;DHT22;56152;49.996;18.980;2023-06-19T04:22:29;13.90;90.00
43647;DHT22;56152;49.996;18.980;2023-06-19T04:27:36;14.30;90.20
43647;DHT22;56152;49.996;18.980;2023-06-19T04:32:41;14.70;89.60
43647;DHT22;56152;49.996;18.980;2023-06-19T04:37:43;15.00;89.20
43647;DHT22;56152;49.996;18.980;2023-06-19T04:42:46;15.40;88.90
43647;DHT22;56152;49.996;18.980;2023-06-19T04:47:54;15.70;88.40
43647;DHT22;56152;49.996;18.980;2023-06-19T04:52:57;16.10;87.70
43647;DHT22;56152;49.996;18.980;2023-06-19T04:58:01;16.30;87.10
43647;DHT22;56152;49.996;18.980;2023-06-19T05:03:03;16.60;86.40
43647;DHT22;56152;49.996;18.980;2023-06-19T05:08:10;17.00;86.30
43647;DHT22;56152;49.996;18.980;2023-06-19T05:13:16;17.30;85.70
43647;DHT22;56152;49.996;18.980;2023-06-19T05:18:18;17.50;85.70
43647;DHT22;56152;49.996;18.980;2023-06-19T05:23:21;17.90;84.80
43647;DHT22;56152;49.996;18.980;2023-06-19T05:28:24;18.30;83.40
43647;DHT22;56152;49.996;18.980;2023-06-19T05:33:26;18.60;83.20
43647;DHT22;56152;49.996;18.980;2023-06-19T05:38:28;18.80;83.20
43647;DHT22;56152;49.996;18.980;2023-06-19T05:43:32;19.10;81.90
43647;DHT22;56152;49.996;18.980;2023-06-19T05:48:37;19.60;80.60
43647;DHT22;56152;49.996;18.980;2023-06-19T05:54:00;20.10;79.10
43647;DHT22;56152;49.996;18.980;2023-06-19T05:59:08;20.40;78.40
43647;DHT22;56152;49.996;18.980;2023-06-19T06:04:10;20.80;77.70
43647;DHT22;56152;49.996;18.980;2023-06-19T06:09:12;21.20;76.00
43647;DHT22;56152;49.996;18.980;2023-06-19T06:14:17;21.50;74.90
43647;DHT22;56152;49.996;18.980;2023-06-19T06:19:20;21.80;74.00
43647;DHT22;56152;49.996;18.980;2023-06-19T06:24:23;22.00;72.70
43647;DHT22;56152;49.996;18.980;2023-06-19T06:29:26;22.10;72.20
43647;DHT22;56152;49.996;18.980;2023-06-19T06:34:28;22.30;71.80
43647;DHT22;56152;49.996;18.980;2023-06-19T06:39:30;22.60;70.80
43647;DHT22;56152;49.996;18.980;2023-06-19T06:44:39;23.30;70.30
43647;DHT22;56152;49.996;18.980;2023-06-19T06:49:41;23.90;68.20
43647;DHT22;56152;49.996;18.980;2023-06-19T06:54:59;24.00;67.10
43647;DHT22;56152;49.996;18.980;2023-06-19T07:00:04;24.30;67.00
43647;DHT22;56152;49.996;18.980;2023-06-19T07:05:09;24.70;65.90
43647;DHT22;56152;49.996;18.980;2023-06-19T07:10:11;25.10;65.50
43647;DHT22;56152;49.996;18.980;2023-06-19T07:15:23;25.30;65.20
43647;DHT22;56152;49.996;18.980;2023-06-19T07:26:22;25.60;63.10
43647;DHT22;56152;49.996;18.980;2023-06-19T07:31:30;26.10;62.60
43647;DHT22;56152;49.996;18.980;2023-06-19T07:36:32;26.60;61.20
43647;DHT22;56152;49.996;18.980;2023-06-19T07:41:37;27.00;60.20
43647;DHT22;56152;49.996;18.980;2023-06-19T07:46:41;27.30;59.30
43647;DHT22;56152;49.996;18.980;2023-06-19T07:51:48;27.60;58.60
43647;DHT22;56152;49.996;18.980;2023-06-19T07:56:49;27.50;57.40
43647;DHT22;56152;49.996;18.980;2023-06-19T08:01:56;27.30;58.10
43647;DHT22;56152;49.996;18.980;2023-06-19T08:06:58;27.70;58.20
43647;DHT22;56152;49.996;18.980;2023-06-19T08:12:06;28.10;57.60
43647;DHT22;56152;49.996;18.980;2023-06-19T08:17:09;28.50;57.00
43647;DHT22;56152;49.996;18.980;2023-06-19T08:22:12;28.70;55.00
43647;DHT22;56152;49.996;18.980;2023-06-19T08:27:15;28.50;57.10
43647;DHT22;56152;49.996;18.980;2023-06-19T08:32:19;28.70;56.30
43647;DHT22;56152;49.996;18.980;2023-06-19T08:37:33;28.40;55.20
43647;DHT22;56152;49.996;18.980;2023-06-19T08:42:35;28.20;54.20
43647;DHT22;56152;49.996;18.980;2023-06-19T08:47:38;28.50;54.20
43647;DHT22;56152;49.996;18.980;2023-06-19T08:53:04;28.70;54.00
43647;DHT22;56152;49.996;18.980;2023-06-19T08:58:06;28.80;53.10
43647;DHT22;56152;49.996;18.980;2023-06-19T09:03:10;29.00;51.70
43647;DHT22;56152;49.996;18.980;2023-06-19T09:08:23;29.20;51.70
43647;DHT22;56152;49.996;18.980;2023-06-19T09:13:30;29.30;51.80
43647;DHT22;56152;49.996;18.980;2023-06-19T09:18:47;29.60;51.50
43647;DHT22;56152;49.996;18.980;2023-06-19T09:23:54;29.60;49.00
43647;DHT22;56152;49.996;18.980;2023-06-19T09:28:56;29.30;49.60
43647;DHT22;56152;49.996;18.980;2023-06-19T09:34:08;29.30;50.00
43647;DHT22;56152;49.996;18.980;2023-06-19T09:39:11;29.40;50.00
43647;DHT22;56152;49.996;18.980;2023-06-19T09:44:13;29.60;49.90
43647;DHT22;56152;49.996;18.980;2023-06-19T09:49:21;29.70;49.50
43647;DHT22;56152;49.996;18.980;2023-06-19T09:54:26;29.60;46.90
43647;DHT22;56152;49.996;18.980;2023-06-19T09:59:29;28.80;49.10
43647;DHT22;56152;49.996;18.980;2023-06-19T10:04:51;29.00;49.70
43647;DHT22;56152;49.996;18.980;2023-06-19T10:09:57;28.90;50.00
43647;DHT22;56152;49.996;18.980;2023-06-19T10:15:21;28.80;50.30
43647;DHT22;56152;49.996;18.980;2023-06-19T10:20:29;29.10;49.70
43647;DHT22;56152;49.996;18.980;2023-06-19T10:25:34;29.30;49.60
43647;DHT22;56152;49.996;18.980;2023-06-19T10:30:36;29.60;49.20
43647;DHT22;56152;49.996;18.980;2023-06-19T10:35:40;29.80;49.20
43647;DHT22;56152;49.996;18.980;2023-06-19T10:40:58;29.90;48.10
43647;DHT22;56152;49.996;18.980;2023-06-19T10:46:02;29.90;47.90
43647;DHT22;56152;49.996;18.980;2023-06-19T10:51:10;29.60;47.60
43647;DHT22;56152;49.996;18.980;2023-06-19T10:56:12;28.90;48.70
43647;DHT22;56152;49.996;18.980;2023-06-19T11:01:16;28.10;49.10
43647;DHT22;56152;49.996;18.980;2023-06-19T11:06:21;27.90;50.50
43647;DHT22;56152;49.996;18.980;2023-06-19T11:11:23;28.60;49.50
43647;DHT22;56152;49.996;18.980;2023-06-19T11:16:39;28.90;48.60
43647;DHT22;56152;49.996;18.980;2023-06-19T11:21:46;29.30;48.50
43647;DHT22;56152;49.996;18.980;2023-06-19T11:26:50;29.30;47.90
43647;DHT22;56152;49.996;18.980;2023-06-19T11:32:05;29.40;47.50
43647;DHT22;56152;49.996;18.980;2023-06-19T11:37:14;29.40;48.00
43647;DHT22;56152;49.996;18.980;2023-06-19T11:42:17;29.60;47.80
43647;DHT22;56152;49.996;18.980;2023-06-19T11:47:33;29.50;47.90
43647;DHT22;56152;49.996;18.980;2023-06-19T11:52:36;29.40;48.10
43647;DHT22;56152;49.996;18.980;2023-06-19T11:57:41;29.60;47.80
43647;DHT22;56152;49.996;18.980;2023-06-19T12:02:44;29.60;47.90
43647;DHT22;56152;49.996;18.980;2023-06-19T12:07:57;29.60;47.90
43647;DHT22;56152;49.996;18.980;2023-06-19T12:13:02;29.20;48.10
43647;DHT22;56152;49.996;18.980;2023-06-19T12:18:17;28.80;48.90
43647;DHT22;56152;49.996;18.980;2023-06-19T12:23:21;28.90;47.50
43647;DHT22;56152;49.996;18.980;2023-06-19T12:28:23;28.70;48.00
43647;DHT22;56152;49.996;18.980;2023-06-19T12:33:26;28.50;48.60
43647;DHT22;56152;49.996;18.980;2023-06-19T12:38:39;28.70;49.00
43647;DHT22;56152;49.996;18.980;2023-06-19T12:43:41;28.90;48.60
43647;DHT22;56152;49.996;18.980;2023-06-19T12:48:44;29.00;48.10
43647;DHT22;56152;49.996;18.980;2023-06-19T12:53:53;29.10;47.80
43647;DHT22;56152;49.996;18.980;2023-06-19T12:58:58;29.10;46.50
43647;DHT22;56152;49.996;18.980;2023-06-19T13:04:16;29.10;47.30
43647;DHT22;56152;49.996;18.980;2023-06-19T13:09:19;29.20;46.70
43647;DHT22;56152;49.996;18.980;2023-06-19T13:14:21;29.30;46.40
43647;DHT22;56152;49.996;18.980;2023-06-19T13:19:23;29.50;45.90
43647;DHT22;56152;49.996;18.980;2023-06-19T13:24:27;29.50;46.20
43647;DHT22;56152;49.996;18.980;2023-06-19T13:29:30;29.50;45.80
43647;DHT22;56152;49.996;18.980;2023-06-19T13:34:34;29.50;45.70
43647;DHT22;56152;49.996;18.980;2023-06-19T13:39:40;29.40;45.80
43647;DHT22;56152;49.996;18.980;2023-06-19T13:44:42;28.90;45.90
43647;DHT22;56152;49.996;18.980;2023-06-19T13:49:53;28.20;46.40
43647;DHT22;56152;49.996;18.980;2023-06-19T13:54:58;27.80;46.90
43647;DHT22;56152;49.996;18.980;2023-06-19T14:00:02;28.00;47.50
43647;DHT22;56152;49.996;18.980;2023-06-19T14:05:06;28.30;46.70
43647;DHT22;56152;49.996;18.980;2023-06-19T14:10:18;28.20;46.70
43647;DHT22;56152;49.996;18.980;2023-06-19T14:15:20;27.80;47.10
43647;DHT22;56152;49.996;18.980;2023-06-19T14:20:22;27.50;47.10
43647;DHT22;56152;49.996;18.980;2023-06-19T14:25:26;27.30;47.70
43647;DHT22;56152;49.996;18.980;2023-06-19T14:30:35;27.10;47.60
43647;DHT22;56152;49.996;18.980;2023-06-19T14:35:37;27.00;46.40
43647;DHT22;56152;49.996;18.980;2023-06-19T14:40:43;27.00;47.00
43647;DHT22;56152;49.996;18.980;2023-06-19T14:45:45;26.90;47.40
43647;DHT22;56152;49.996;18.980;2023-06-19T14:50:47;26.80;47.60
43647;DHT22;56152;49.996;18.980;2023-06-19T14:55:51;26.80;47.60
43647;DHT22;56152;49.996;18.980;2023-06-19T15:01:03;26.80;47.80
43647;DHT22;56152;49.996;18.980;2023-06-19T15:06:09;27.00;47.80
43647;DHT22;56152;49.996;18.980;2023-06-19T15:11:14;27.00;47.80
43647;DHT22;56152;49.996;18.980;2023-06-19T15:16:16;26.90;47.50
43647;DHT22;56152;49.996;18.980;2023-06-19T15:21:20;27.10;47.70
43647;DHT22;56152;49.996;18.980;2023-06-19T15:26:24;27.30;47.20
43647;DHT22;56152;49.996;18.980;2023-06-19T15:31:26;27.50;47.20
43647;DHT22;56152;49.996;18.980;2023-06-19T15:36:29;27.50;47.00
43647;DHT22;56152;49.996;18.980;2023-06-19T15:41:34;27.40;46.90
43647;DHT22;56152;49.996;18.980;2023-06-19T15:46:36;27.30;46.30
43647;DHT22;56152;49.996;18.980;2023-06-19T15:51:38;27.20;46.80
43647;DHT22;56152;49.996;18.980;2023-06-19T15:56:46;27.20;47.10
43647;DHT22;56152;49.996;18.980;2023-06-19T16:01:48;27.20;47.50
43647;DHT22;56152;49.996;18.980;2023-06-19T16:06:50;27.10;46.90
43647;DHT22;56152;49.996;18.980;2023-06-19T16:11:57;27.00;47.10
43647;DHT22;56152;49.996;18.980;2023-06-19T16:17:00;27.00;47.30
43647;DHT22;56152;49.996;18.980;2023-06-19T16:22:10;26.90;47.30
43647;DHT22;56152;49.996;18.980;2023-06-19T16:33:04;26.80;48.10
43647;DHT22;56152;49.996;18.980;2023-06-19T16:38:10;26.70;48.00
43647;DHT22;56152;49.996;18.980;2023-06-19T16:43:12;26.70;47.70
43647;DHT22;56152;49.996;18.980;2023-06-19T16:48:23;26.60;48.00
43647;DHT22;56152;49.996;18.980;2023-06-19T16:53:24;26.60;47.50
43647;DHT22;56152;49.996;18.980;2023-06-19T16:58:27;26.50;47.40
43647;DHT22;56152;49.996;18.980;2023-06-19T17:03:34;26.40;47.50
43647;DHT22;56152;49.996;18.980;2023-06-19T17:08:36;26.30;47.80
43647;DHT22;56152;49.996;18.980;2023-06-19T17:13:50;26.30;48.20
43647;DHT22;56152;49.996;18.980;2023-06-19T17:18:55;26.30;48.00
43647;DHT22;56152;49.996;18.980;2023-06-19T17:23:57;26.30;48.00
43647;DHT22;56152;49.996;18.980;2023-06-19T17:28:59;26.20;48.10
43647;DHT22;56152;49.996;18.980;2023-06-19T17:34:18;26.20;48.30
43647;DHT22;56152;49.996;18.980;2023-06-19T17:39:20;26.00;49.00
43647;DHT22;56152;49.996;18.980;2023-06-19T17:44:23;25.90;50.00
43647;DHT22;56152;49.996;18.980;2023-06-19T17:49:31;25.70;50.70
43647;DHT22;56152;49.996;18.980;2023-06-19T17:54:33;25.50;51.40
43647;DHT22;56152;49.996;18.980;2023-06-19T17:59:35;25.30;51.90
43647;DHT22;56152;49.996;18.980;2023-06-19T18:04:38;25.00;52.50
43647;DHT22;56152;49.996;18.980;2023-06-19T18:09:43;24.80;53.00
43647;DHT22;56152;49.996;18.980;2023-06-19T18:14:47;24.50;53.80
43647;DHT22;56152;49.996;18.980;2023-06-19T18:19:51;24.30;54.30
43647;DHT22;56152;49.996;18.980;2023-06-19T18:24:54;24.10;54.70
43647;DHT22;56152;49.996;18.980;2023-06-19T18:29:56;23.90;55.30
43647;DHT22;56152;49.996;18.980;2023-06-19T18:35:00;23.70;55.80
43647;DHT22;56152;49.996;18.980;2023-06-19T18:40:05;23.40;56.00
43647;DHT22;56152;49.996;18.980;2023-06-19T18:45:10;23.20;56.60
43647;DHT22;56152;49.996;18.980;2023-06-19T18:50:16;23.00;57.00
43647;DHT22;56152;49.996;18.980;2023-06-19T18:55:18;22.70;57.60
43647;DHT22;56152;49.996;18.980;2023-06-19T19:00:21;22.50;58.20
43647;DHT22;56152;49.996;18.980;2023-06-19T19:05:42;22.20;58.60
43647;DHT22;56152;49.996;18.980;2023-06-19T19:10:45;21.80;59.50
43647;DHT22;56152;49.996;18.980;2023-06-19T19:15:57;21.50;60.00
43647;DHT22;56152;49.996;18.980;2023-06-19T19:21:01;21.20;60.90
43647;DHT22;56152;49.996;18.980;2023-06-19T19:26:05;20.90;61.30
43647;DHT22;56152;49.996;18.980;2023-06-19T19:31:15;20.70;61.80
43647;DHT22;56152;49.996;18.980;2023-06-19T19:36:24;20.50;62.10
43647;DHT22;56152;49.996;18.980;2023-06-19T19:41:27;20.30;62.50
43647;DHT22;56152;49.996;18.980;2023-06-19T19:46:38;20.20;63.00
43647;DHT22;56152;49.996;18.980;2023-06-19T19:51:58;20.20;63.20
43647;DHT22;56152;49.996;18.980;2023-06-19T19:57:32;20.20;63.30
43647;DHT22;56152;49.996;18.980;2023-06-19T20:02:55;19.90;63.90
43647;DHT22;56152;49.996;18.980;2023-06-19T20:08:13;19.90;64.40
43647;DHT22;56152;49.996;18.980;2023-06-19T20:13:21;19.70;64.50
43647;DHT22;56152;49.996;18.980;2023-06-19T20:18:23;19.60;64.90
43647;DHT22;56152;49.996;18.980;2023-06-19T20:23:29;19.40;65.40
43647;DHT22;56152;49.996;18.980;2023-06-19T20:28:31;19.20;66.00
43647;DHT22;56152;49.996;18.980;2023-06-19T20:33:35;19.10;66.20
43647;DHT22;56152;49.996;18.980;2023-06-19T20:38:39;19.00;66.70
43647;DHT22;56152;49.996;18.980;2023-06-19T20:43:41;18.80;67.40
43647;DHT22;56152;49.996;18.980;2023-06-19T20:48:47;18.60;67.90
43647;DHT22;56152;49.996;18.980;2023-06-19T20:53:51;18.40;68.30
43647;DHT22;56152;49.996;18.980;2023-06-19T20:58:56;18.20;69.00
43647;DHT22;56152;49.996;18.980;2023-06-19T21:04:11;18.20;68.90
43647;DHT22;56152;49.996;18.980;2023-06-19T21:09:17;18.20;69.10
43647;DHT22;56152;49.996;18.980;2023-06-19T21:14:21;18.00;69.40
43647;DHT22;56152;49.996;18.980;2023-06-19T21:19:23;17.90;69.90
43647;DHT22;56152;49.996;18.980;2023-06-19T21:24:27;17.80;70.10
43647;DHT22;56152;49.996;18.980;2023-06-19T21:29:45;17.70;70.40
43647;DHT22;56152;49.996;18.980;2023-06-19T21:34:47;17.50;71.00
43647;DHT22;56152;49.996;18.980;2023-06-19T21:40:11;17.20;71.30
43647;DHT22;56152;49.996;18.980;2023-06-19T21:45:13;17.10;71.90
43647;DHT22;56152;49.996;18.980;2023-06-19T21:50:15;16.90;72.10
43647;DHT22;56152;49.996;18.980;2023-06-19T21:55:20;16.80;72.60
43647;DHT22;56152;49.996;18.980;2023-06-19T22:00:25;16.70;73.00
43647;DHT22;56152;49.996;18.980;2023-06-19T22:05:27;16.60;73.20
43647;DHT22;56152;49.996;18.980;2023-06-19T22:10:50;16.60;73.40
43647;DHT22;56152;49.996;18.980;2023-06-19T22:15:53;16.50;73.70
43647;DHT22;56152;49.996;18.980;2023-06-19T22:21:02;16.40;73.60
43647;DHT22;56152;49.996;18.980;2023-06-19T22:26:06;16.30;74.10
43647;DHT22;56152;49.996;18.980;2023-06-19T22:31:24;16.30;74.30
43647;DHT22;56152;49.996;18.980;2023-06-19T22:36:26;16.30;74.30
43647;DHT22;56152;49.996;18.980;2023-06-19T22:41:29;16.30;74.60
43647;DHT22;56152;49.996;18.980;2023-06-19T22:46:35;16.30;75.00
43647;DHT22;56152;49.996;18.980;2023-06-19T22:51:37;16.30;75.20
43647;DHT22;56152;49.996;18.980;2023-06-19T22:56:59;16.30;75.20
43647;DHT22;56152;49.996;18.980;2023-06-19T23:02:03;16.20;75.50
43647;DHT22;56152;49.996;18.980;2023-06-19T23:07:05;16.30;75.60
43647;DHT22;56152;49.996;18.980;2023-06-19T23:12:09;16.20;75.80
43647;DHT22;56152;49.996;18.980;2023-06-19T23:17:17;16.20;76.00
43647;DHT22;56152;49.996;18.980;2023-06-19T23:22:35;16.10;76.20
43647;DHT22;56152;49.996;18.980;2023-06-19T23:27:39;16.00;76.40
43647;DHT22;56152;49.996;18.980;2023-06-19T23:32:42;16.00;76.80
43647;DHT22;56152;49.996;18.980;2023-06-19T23:37:44;15.90;77.00
43647;DHT22;56152;49.996;18.980;2023-06-19T23:42:54;15.90;77.40
43647;DHT22;56152;49.996;18.980;2023-06-19T23:47:56;15.80;77.90
43647;DHT22;56152;49.996;18.980;2023-06-19T23:53:00;15.80;78.10
43647;DHT22;56152;49.996;18.980;2023-06-19T23:58:03;15.90;79.30
